Time;durP1;ratioP1;P1;durP2;ratioP2;P2;SDS_P1;SDS_P2;PMS_P1;PMS_P2;Temp;Humidity;BMP_temperature;BMP_pressure;BME280_temperature;BME280_humidity;BME280_pressure;Samples;Min_cycle;Max_cycle;Signal;HPM_P1;HPM_P2
2022/10/20 00:02:17;;;;;;;7.23;4.10;;;;;;;8.77;94.36;101641.88;4976045;28;20058;-86
2022/10/20 00:04:43;;;;;;;9.33;4.87;;;;;;;8.75;94.58;101631.53;4976690;28;20023;-86
2022/10/20 00:07:08;;;;;;;9.80;5.43;;;;;;;8.76;95.51;101632.38;4976109;28;20023;-86
2022/10/20 00:09:33;;;;;;;8.95;4.78;;;;;;;8.76;95.51;101622.91;4975653;28;20514;-85
2022/10/20 00:11:58;;;;;;;8.77;4.50;;;;;;;8.74;95.55;101616.84;4975783;28;20026;-86
2022/10/20 00:14:24;;;;;;;11.57;6.20;;;;;;;8.70;97.65;101611.66;4976478;28;20019;-86
2022/10/20 00:16:49;;;;;;;10.90;5.50;;;;;;;8.74;96.06;101603.91;4975572;28;20034;-86
2022/10/20 00:19:14;;;;;;;15.20;6.90;;;;;;;8.67;98.30;101602.13;4975913;28;20035;-86
2022/10/20 00:21:39;;;;;;;13.13;6.80;;;;;;;8.69;98.22;101607.34;4976262;28;20407;-85
2022/10/20 00:24:05;;;;;;;13.32;6.43;;;;;;;8.68;97.69;101606.44;4975496;28;20128;-86
2022/10/20 00:26:31;;;;;;;11.33;6.03;;;;;;;8.69;96.71;101608.19;4976200;28;20534;-87
2022/10/20 00:28:56;;;;;;;11.15;5.88;;;;;;;8.71;97.50;101609.06;4976090;28;20030;-87
2022/10/20 00:31:23;;;;;;;9.00;5.30;;;;;;;8.68;96.04;101610.78;4976017;28;20025;-86
2022/10/20 00:33:49;;;;;;;;;;;;;;;8.67;96.34;101602.13;4976095;28;20491;-86
2022/10/20 00:36:16;;;;;;;9.67;4.97;;;;;;;8.67;96.53;101601.28;4976170;28;19914;-86
2022/10/20 00:38:42;;;;;;;10.45;5.18;;;;;;;8.73;95.70;101612.53;4975280;28;20038;-86
2022/10/20 00:41:11;;;;;;;8.37;4.67;;;;;;;8.72;96.14;101594.41;4974962;28;20468;-86
2022/10/20 00:43:54;;;;;;;10.18;5.07;;;;;;;8.69;97.70;101586.63;4975944;28;20031;-86
2022/10/20 00:46:22;;;;;;;11.80;5.68;;;;;;;8.68;98.39;101587.50;4975534;28;20149;-87
2022/10/20 00:48:52;;;;;;;10.70;5.20;;;;;;;8.68;97.60;101578.00;4975856;28;20170;-86
2022/10/20 00:51:21;;;;;;;16.50;7.80;;;;;;;8.65;100.00;101575.41;4974516;28;20078;-86
2022/10/20 00:53:50;;;;;;;14.65;6.82;;;;;;;8.68;98.41;101566.78;4975631;28;20043;-86
2022/10/20 00:56:15;;;;;;;13.07;6.03;;;;;;;8.68;99.24;101567.63;4975738;28;20034;-86
2022/10/20 00:58:42;;;;;;;12.60;6.17;;;;;;;8.67;98.12;101563.31;4974064;28;20024;-86
2022/10/20 01:01:08;;;;;;;12.95;6.68;;;;;;;8.67;99.39;101565.06;4975327;28;20027;-86
2022/10/20 01:03:44;;;;;;;12.98;5.90;;;;;;;8.65;98.04;101565.91;4975461;28;20019;-86
2022/10/20 01:06:10;;;;;;;12.98;5.80;;;;;;;8.67;97.99;101567.63;4936181;29;20062;-86
2022/10/20 01:08:36;;;;;;;10.07;5.25;;;;;;;8.67;97.21;101570.22;4951523;28;20039;-86
2022/10/20 01:11:41;;;;;;;9.23;4.87;;;;;;;8.74;96.67;101570.25;4972067;28;20081;-87
2022/10/20 01:14:36;;;;;;;9.23;4.78;;;;;;;8.68;97.92;101553.84;4974658;28;20150;-86
2022/10/20 01:17:31;;;;;;;13.05;6.28;;;;;;;8.67;98.77;101550.38;4974922;28;20038;-85
2022/10/20 01:20:31;;;;;;;11.73;5.90;;;;;;;8.66;98.52;101543.50;4932014;29;20051;-86
2022/10/20 01:23:42;;;;;;;12.55;5.53;;;;;;;8.63;98.44;101522.78;4936198;29;20039;-86
2022/10/20 01:26:44;;;;;;;16.05;7.53;;;;;;;8.59;100.00;101515.84;4936441;29;20466;-85
2022/10/20 01:29:35;;;;;;;15.27;7.20;;;;;;;8.56;99.40;101506.38;4936287;29;20049;-86
2022/10/20 01:32:06;;;;;;;14.98;6.93;;;;;;;8.54;98.81;101508.06;4936274;29;20028;-86
2022/10/20 01:34:44;;;;;;;12.30;6.30;;;;;;;8.55;98.38;101502.03;4935853;29;20400;-86
2022/10/20 01:37:16;;;;;;;13.00;6.35;;;;;;;8.52;99.55;101499.44;4935976;29;20535;-86
2022/10/20 01:39:59;;;;;;;12.98;6.40;;;;;;;8.51;98.41;101492.53;4936382;29;20106;-86
2022/10/20 01:42:26;;;;;;;16.73;7.90;;;;;;;8.43;100.00;101496.78;4936003;29;20111;-86
2022/10/20 01:44:57;;;;;;;14.95;7.15;;;;;;;8.41;99.87;101493.31;4935901;29;20106;-86
2022/10/20 01:47:25;;;;;;;14.88;6.60;;;;;;;8.39;99.19;101495.91;4936144;29;20120;-86
2022/10/20 01:49:51;;;;;;;15.45;7.55;;;;;;;8.33;100.00;101486.41;4934966;29;20110;-85
2022/10/20 01:52:17;;;;;;;12.37;6.50;;;;;;;8.33;99.37;101499.34;4943625;28;20042;-86
2022/10/20 01:54:42;;;;;;;13.43;6.40;;;;;;;8.34;98.73;101500.19;4954728;29;20019;-85
2022/10/20 01:57:18;;;;;;;9.70;4.83;;;;;;;8.32;98.63;101509.69;4959154;28;20046;-85
2022/10/20 02:00:09;;;;;;;10.35;5.22;;;;;;;8.31;99.42;101505.38;4974089;28;20062;-86
2022/10/20 02:03:12;;;;;;;10.15;5.15;;;;;;;8.28;98.99;101501.03;4973627;28;20097;-86
2022/10/20 02:06:35;;;;;;;9.90;4.93;;;;;;;8.27;99.14;101496.75;4974177;28;20049;-86
2022/10/20 02:09:07;;;;;;;12.90;5.95;;;;;;;8.24;99.61;101488.06;4932612;29;20028;-85
2022/10/20 02:11:55;;;;;;;11.75;5.65;;;;;;;8.22;99.44;101492.41;4933740;29;20528;-86
2022/10/20 02:14:22;;;;;;;12.20;5.80;;;;;;;8.20;99.07;101489.78;4961861;28;20439;-86
2022/10/20 02:16:56;;;;;;;8.70;4.90;;;;;;;8.21;98.95;101476.00;4954297;29;20041;-87
2022/10/20 02:19:24;;;;;;;8.27;4.65;;;;;;;8.19;98.68;101483.78;4955320;29;20024;-86
2022/10/20 02:21:53;;;;;;;7.38;4.13;;;;;;;8.19;98.37;101473.44;4954374;29;20028;-86
2022/10/20 02:24:22;;;;;;;8.52;4.30;;;;;;;8.18;98.52;101469.09;4954625;29;20432;-86
2022/10/20 02:26:50;;;;;;;8.20;4.57;;;;;;;8.17;98.81;101467.38;4954891;29;20031;-86
2022/10/20 02:29:24;;;;;;;10.73;4.90;;;;;;;8.13;99.30;101459.59;4954821;29;20480;-85
2022/10/20 02:31:50;;;;;;;10.38;5.28;;;;;;;8.11;99.42;101450.97;4953970;29;20035;-85
2022/10/20 02:34:15;;;;;;;11.03;4.90;;;;;;;8.12;98.83;101452.69;4954960;29;20028;-86
2022/10/20 02:36:42;;;;;;;9.93;5.37;;;;;;;8.09;99.76;101448.38;4954914;29;20102;-86
2022/10/20 02:39:08;;;;;;;12.63;6.38;;;;;;;8.06;100.00;101440.59;4953465;28;20077;-86
2022/10/20 02:41:34;;;;;;;19.02;8.60;;;;;;;8.01;100.00;101430.25;4954693;29;20063;-86
2022/10/20 02:43:59;;;;;;;16.40;8.23;;;;;;;8.00;100.00;101431.09;4954095;29;20023;-86
2022/10/20 02:46:24;;;;;;;20.00;9.48;;;;;;;7.98;100.00;101419.03;4954925;29;20026;-86
2022/10/20 02:48:49;;;;;;;18.83;9.00;;;;;;;7.98;100.00;101408.69;4954417;29;20551;-86
2022/10/20 02:51:16;;;;;;;16.48;8.27;;;;;;;7.93;100.00;101407.78;4953535;29;20103;-86
2022/10/20 02:53:42;;;;;;;13.70;6.88;;;;;;;7.96;100.00;101406.09;4954753;29;20034;-86
2022/10/20 02:56:07;;;;;;;12.17;6.10;;;;;;;7.97;100.00;101405.22;4955335;28;20110;-85
2022/10/20 02:58:32;;;;;;;16.63;7.88;;;;;;;7.95;100.00;101396.59;4954251;29;20027;-86
2022/10/20 03:00:58;;;;;;;17.17;8.27;;;;;;;7.95;100.00;101390.56;4954163;29;20030;-85
2022/10/20 03:03:23;;;;;;;16.33;8.23;;;;;;;7.94;100.00;101384.53;4954884;29;20023;-86
2022/10/20 03:05:48;;;;;;;18.75;9.23;;;;;;;7.95;100.00;101375.91;4953829;29;20016;-86
2022/10/20 03:08:14;;;;;;;20.58;10.15;;;;;;;7.93;100.00;101369.91;4954577;29;20027;-86
2022/10/20 03:10:40;;;;;;;20.27;10.40;;;;;;;7.98;100.00;101367.34;4954820;29;20031;-86
2022/10/20 03:13:06;;;;;;;18.50;8.95;;;;;;;7.95;100.00;101370.75;4953572;29;20098;-86
2022/10/20 03:15:31;;;;;;;20.00;9.90;;;;;;;7.98;100.00;101369.91;4954354;29;20500;-86
2022/10/20 03:17:57;;;;;;;16.70;8.32;;;;;;;8.01;100.00;101367.31;4954409;29;20032;-86
2022/10/20 03:20:22;;;;;;;15.00;7.50;;;;;;;8.02;100.00;101359.59;4953893;28;20416;-86
2022/10/20 03:22:47;;;;;;;16.05;7.60;;;;;;;8.04;100.00;101359.59;4957637;29;20034;-86
2022/10/20 03:25:13;;;;;;;15.20;7.45;;;;;;;8.03;100.00;101348.41;4957562;29;20038;-86
2022/10/20 03:27:38;;;;;;;16.93;8.13;;;;;;;8.06;100.00;101344.94;4957593;29;20032;-86
2022/10/20 03:30:04;;;;;;;17.55;8.85;;;;;;;8.09;100.00;101351.84;4957246;29;20035;-86
2022/10/20 03:32:29;;;;;;;17.20;8.40;;;;;;;8.16;100.00;101354.47;4957709;29;20468;-86
2022/10/20 03:34:54;;;;;;;15.57;7.82;;;;;;;8.14;100.00;101335.50;4957028;29;20031;-86
2022/10/20 03:37:19;;;;;;;18.00;8.63;;;;;;;8.16;100.00;101332.94;4957911;29;20023;-86
2022/10/20 03:39:45;;;;;;;17.90;9.03;;;;;;;8.17;100.00;101338.09;4957654;29;20059;-86
2022/10/20 03:42:10;;;;;;;16.00;7.87;;;;;;;8.19;100.00;101341.56;4956884;29;20027;-86
2022/10/20 03:44:35;;;;;;;13.77;6.40;;;;;;;8.22;100.00;101345.88;4972113;28;20637;-86
2022/10/20 03:47:00;;;;;;;13.50;6.05;;;;;;;8.25;100.00;101337.25;4976987;28;20037;-86
2022/10/20 03:49:26;;;;;;;13.87;6.27;;;;;;;8.26;100.00;101332.09;4976128;28;20038;-86
2022/10/20 03:51:51;;;;;;;12.13;5.80;;;;;;;8.30;100.00;101332.94;4976342;28;20027;-86
2022/10/20 03:54:16;;;;;;;16.33;7.67;;;;;;;8.32;100.00;101328.66;4976612;28;20023;-86
2022/10/20 03:56:42;;;;;;;14.40;6.63;;;;;;;8.35;100.00;101320.88;4976774;28;20487;-86
2022/10/20 03:59:09;;;;;;;12.20;5.70;;;;;;;8.37;100.00;101319.16;4976382;28;20082;-86
2022/10/20 04:01:35;;;;;;;13.75;6.40;;;;;;;8.38;100.00;101318.31;4976243;28;20432;-86
2022/10/20 04:04:00;;;;;;;12.30;5.67;;;;;;;8.40;100.00;101316.59;4976638;28;20027;-86
2022/10/20 04:06:25;;;;;;;9.90;5.07;;;;;;;8.42;100.00;101311.41;4976860;28;20375;-86
2022/10/20 04:08:51;;;;;;;9.83;4.80;;;;;;;8.44;100.00;101326.09;4975642;28;20031;-86
2022/10/20 04:11:16;;;;;;;7.47;4.30;;;;;;;8.46;100.00;101315.72;4976499;28;20076;-86
2022/10/20 04:13:41;;;;;;;7.93;4.03;;;;;;;8.48;100.00;101316.63;4968815;28;20038;-86
2022/10/20 04:16:07;;;;;;;7.67;4.33;;;;;;;8.50;100.00;101317.47;4956126;29;20027;-86
2022/10/20 04:18:32;;;;;;;9.68;4.93;;;;;;;8.52;100.00;101308.00;4957133;29;20034;-86
2022/10/20 04:20:57;;;;;;;11.10;5.30;;;;;;;8.54;100.00;101298.53;4956974;29;20029;-86
2022/10/20 04:23:23;;;;;;;9.17;5.20;;;;;;;8.56;100.00;101298.50;4956603;29;20110;-86
2022/10/20 04:25:48;;;;;;;19.47;9.27;;;;;;;8.56;100.00;101282.97;4956752;29;20038;-86
2022/10/20 04:28:15;;;;;;;17.63;8.70;;;;;;;8.59;100.00;101273.53;4956447;29;20027;-88
2022/10/20 04:30:41;;;;;;;15.23;7.47;;;;;;;8.61;100.00;101269.19;4956351;29;20035;-87
2022/10/20 04:33:07;;;;;;;14.85;6.93;;;;;;;8.62;100.00;101267.47;4956613;28;20034;-86
2022/10/20 04:35:32;;;;;;;13.75;6.72;;;;;;;8.66;100.00;101271.81;4962297;28;20023;-86
2022/10/20 04:37:58;;;;;;;11.60;5.30;;;;;;;8.67;100.00;101270.06;4975380;28;20034;-86
2022/10/20 04:40:23;;;;;;;11.47;5.40;;;;;;;8.73;100.00;101264.88;4976004;28;20057;-86
2022/10/20 04:42:48;;;;;;;12.57;6.07;;;;;;;8.78;100.00;101255.38;4975765;28;20027;-86
2022/10/20 04:45:14;;;;;;;11.00;5.53;;;;;;;8.84;100.00;101257.09;4974966;28;20031;-86
2022/10/20 04:47:39;;;;;;;11.27;5.30;;;;;;;8.87;100.00;101254.53;4975743;28;20027;-86
2022/10/20 04:50:05;;;;;;;10.80;5.63;;;;;;;8.94;100.00;101257.09;4975357;28;20125;-86
2022/10/20 04:52:31;;;;;;;12.10;6.13;;;;;;;9.02;100.00;101254.47;4975277;28;20027;-86
2022/10/20 04:54:56;;;;;;;12.93;6.20;;;;;;;9.07;100.00;101239.81;4975276;28;20065;-87
2022/10/20 04:57:21;;;;;;;10.48;5.40;;;;;;;9.11;100.00;101230.28;4968179;28;20027;-86
2022/10/20 04:59:46;;;;;;;12.80;6.00;;;;;;;9.17;100.00;101232.00;4955862;29;20027;-86
2022/10/20 05:02:12;;;;;;;11.67;5.83;;;;;;;9.22;100.00;101232.88;4956010;29;20027;-86
2022/10/20 05:04:37;;;;;;;17.77;8.73;;;;;;;9.35;100.00;101223.31;4955495;29;20062;-85
2022/10/20 05:07:02;;;;;;;16.15;7.95;;;;;;;9.35;100.00;101224.16;4955695;28;20027;-86
2022/10/20 05:09:28;;;;;;;14.80;7.43;;;;;;;9.40;100.00;101221.56;4956047;29;20476;-86
2022/10/20 05:11:53;;;;;;;16.70;7.90;;;;;;;9.46;100.00;101228.47;4955113;29;20062;-85
2022/10/20 05:14:19;;;;;;;16.13;7.93;;;;;;;9.49;100.00;101225.81;4956058;29;20114;-85
2022/10/20 05:16:44;;;;;;;15.80;7.70;;;;;;;9.52;100.00;101241.38;4957051;28;20543;-85
2022/10/20 05:19:10;;;;;;;14.57;6.87;;;;;;;9.53;100.00;101249.13;4955135;29;20035;-85
2022/10/20 05:21:36;;;;;;;12.70;6.45;;;;;;;9.54;100.00;101230.13;4955786;29;20035;-85
2022/10/20 05:24:03;;;;;;;11.57;6.00;;;;;;;9.54;100.00;101211.97;4955547;29;20472;-85
2022/10/20 05:26:33;;;;;;;14.23;6.85;;;;;;;9.56;100.00;101194.69;4955097;29;20027;-86
2022/10/20 05:28:58;;;;;;;12.05;6.10;;;;;;;9.55;100.00;101189.53;4955888;28;20110;-86
2022/10/20 05:31:24;;;;;;;10.60;5.60;;;;;;;9.57;100.00;101218.88;4955460;29;20174;-84
2022/10/20 05:33:52;;;;;;;9.77;5.27;;;;;;;9.59;100.00;101227.50;4955067;29;20082;-84
2022/10/20 05:36:21;;;;;;;9.98;5.22;;;;;;;9.60;100.00;101223.19;4955563;29;20387;-84
2022/10/20 05:38:46;;;;;;;11.50;5.38;;;;;;;9.61;100.00;101212.81;4955510;29;20041;-84
2022/10/20 05:41:14;;;;;;;7.10;4.50;;;;;;;9.61;100.00;101227.50;4954237;29;20023;-84
2022/10/20 05:43:39;;;;;;;7.82;4.35;;;;;;;9.62;100.00;101216.28;4955076;28;20043;-86
2022/10/20 05:46:06;;;;;;;7.80;4.53;;;;;;;9.62;100.00;101216.28;4955210;29;20035;-86
2022/10/20 05:48:32;;;;;;;9.57;4.88;;;;;;;9.61;100.00;101199.84;4954438;29;20484;-84
2022/10/20 05:51:13;;;;;;;8.60;4.60;;;;;;;9.61;100.00;101199.84;4954955;29;20065;-84
2022/10/20 05:53:39;;;;;;;13.10;5.47;;;;;;;9.63;100.00;101197.25;4955153;28;20035;-83
2022/10/20 05:56:09;;;;;;;15.93;7.63;;;;;;;9.65;100.00;101203.28;4954777;29;20027;-84
2022/10/20 05:58:34;;;;;;;13.65;6.82;;;;;;;9.63;100.00;101213.66;4956128;28;20041;-82
2022/10/20 06:01:18;;;;;;;14.13;6.83;;;;;;;9.64;100.00;101214.53;4954209;29;20027;-81
2022/10/20 06:03:48;;;;;;;14.63;6.93;;;;;;;9.63;100.00;101218.84;4955166;29;20062;-81
2022/10/20 06:06:13;;;;;;;12.15;6.07;;;;;;;9.63;100.00;101215.38;4954532;29;20480;-81
2022/10/20 06:08:39;;;;;;;10.93;5.37;;;;;;;9.63;100.00;101226.63;4954180;29;20034;-81
2022/10/20 06:11:07;;;;;;;10.13;5.40;;;;;;;9.62;100.00;101216.28;4954884;29;20031;-81
2022/10/20 06:13:33;;;;;;;11.00;5.50;;;;;;;9.60;100.00;101216.28;4954992;29;20035;-81
2022/10/20 06:16:03;;;;;;;9.10;5.00;;;;;;;9.61;100.00;101212.81;4965171;28;20034;-81
2022/10/20 06:18:30;;;;;;;8.70;4.68;;;;;;;9.62;100.00;101205.91;4974226;28;20023;-81
2022/10/20 06:21:00;;;;;;;10.18;5.45;;;;;;;9.62;100.00;101208.50;4973875;28;20034;-81
2022/10/20 06:23:25;;;;;;;10.23;5.05;;;;;;;9.64;100.00;101211.94;4973553;28;20035;-81
2022/10/20 06:25:50;;;;;;;9.93;4.73;;;;;;;9.66;100.00;101217.97;4973887;28;20026;-87
2022/10/20 06:28:16;;;;;;;8.32;4.75;;;;;;;9.67;100.00;101220.56;4974408;28;20031;-86
2022/10/20 06:30:41;;;;;;;12.10;5.60;;;;;;;9.69;100.00;101218.81;4973939;28;20538;-87
2022/10/20 06:33:11;;;;;;;8.80;4.63;;;;;;;9.69;100.00;101236.94;4973315;28;20035;-84
2022/10/20 06:35:36;;;;;;;9.85;5.30;;;;;;;9.73;100.00;101214.50;4974423;28;20031;-85
2022/10/20 06:38:01;;;;;;;9.97;5.17;;;;;;;9.73;100.00;101207.56;4973040;28;20023;-86
2022/10/20 06:40:26;;;;;;;9.57;5.05;;;;;;;9.74;100.00;101217.06;4973547;28;20086;-84
2022/10/20 06:42:52;;;;;;;11.90;6.03;;;;;;;9.78;100.00;101212.72;4973500;28;20206;-85
2022/10/20 06:45:17;;;;;;;13.63;7.07;;;;;;;9.80;100.00;101208.38;4973016;28;20027;-84
2022/10/20 06:47:42;;;;;;;12.30;6.30;;;;;;;9.82;100.00;101204.06;4973967;28;20484;-84
2022/10/20 06:50:08;;;;;;;11.00;5.87;;;;;;;9.83;100.00;101197.13;4972328;28;20043;-84
2022/10/20 06:52:33;;;;;;;10.90;5.40;;;;;;;9.84;100.00;101202.31;4974082;28;20022;-84
2022/10/20 06:54:58;;;;;;;11.50;5.50;;;;;;;9.88;100.00;101203.16;4973723;28;20029;-85
2022/10/20 06:57:23;;;;;;;11.87;6.30;;;;;;;9.89;100.00;101200.56;4976172;28;20026;-84
2022/10/20 06:59:49;;;;;;;10.83;6.03;;;;;;;9.92;100.00;101193.63;4977472;28;20023;-84
2022/10/20 07:02:15;;;;;;;11.10;6.00;;;;;;;9.95;100.00;101191.88;4977525;28;20023;-84
2022/10/20 07:04:40;;;;;;;12.67;6.30;;;;;;;10.02;100.00;101190.09;4977141;28;20027;-84
2022/10/20 07:07:05;;;;;;;14.47;7.03;;;;;;;9.99;100.00;101180.63;4975474;28;20035;-84
2022/10/20 07:09:30;;;;;;;15.13;7.50;;;;;;;10.03;100.00;101184.03;4977284;28;20085;-83
2022/10/20 07:11:56;;;;;;;14.37;7.17;;;;;;;10.05;100.00;101177.97;4976671;28;20043;-84
2022/10/20 07:14:21;;;;;;;11.53;6.17;;;;;;;10.08;100.00;101178.81;4977520;28;20034;-84
2022/10/20 07:16:46;;;;;;;12.93;6.43;;;;;;;10.11;100.00;101190.03;4977431;28;20052;-85
2022/10/20 07:19:12;;;;;;;11.17;5.70;;;;;;;10.14;100.00;101195.19;4976184;28;20027;-84
2022/10/20 07:21:37;;;;;;;12.33;6.37;;;;;;;10.15;100.00;101194.31;4977452;28;20019;-84
2022/10/20 07:24:04;;;;;;;12.17;6.40;;;;;;;10.20;100.00;101196.88;4977133;28;20022;-84
2022/10/20 07:26:30;;;;;;;;;;;;;;;10.23;100.00;101195.97;4976452;28;20097;-84
2022/10/20 07:28:56;;;;;;;;;;;;;;;10.28;100.00;101200.25;4977414;28;19999;-84
2022/10/20 07:31:31;;;;;;;16.88;8.07;;;;;;;10.31;100.00;101204.56;4976980;28;19917;-85
2022/10/20 07:34:00;;;;;;;14.88;7.60;;;;;;;10.33;100.00;101190.72;4976264;28;20033;-84
2022/10/20 07:36:27;;;;;;;15.60;7.55;;;;;;;10.39;100.00;101194.16;4976591;28;20542;-84
2022/10/20 07:38:56;;;;;;;16.05;7.85;;;;;;;10.42;100.00;101192.38;4976248;28;20476;-84
2022/10/20 07:41:22;;;;;;;14.20;7.55;;;;;;;10.47;100.00;101197.56;4976351;28;20026;-84
2022/10/20 07:43:47;;;;;;;14.30;7.20;;;;;;;10.50;100.00;101200.09;4976464;28;20027;-84
2022/10/20 07:46:13;;;;;;;12.40;6.70;;;;;;;10.54;100.00;101196.63;4975883;28;20073;-84
2022/10/20 07:48:39;;;;;;;15.63;7.30;;;;;;;10.59;100.00;101200.00;4976928;28;20038;-85
2022/10/20 07:51:25;;;;;;;14.67;7.60;;;;;;;10.69;100.00;101203.38;4976471;28;20086;-85
2022/10/20 07:53:53;;;;;;;16.83;8.60;;;;;;;10.70;100.00;101193.84;4975647;28;20061;-84
2022/10/20 07:56:19;;;;;;;15.27;7.57;;;;;;;10.74;100.00;101198.16;4960612;28;20028;-84
2022/10/20 07:58:44;;;;;;;15.75;7.80;;;;;;;10.80;100.00;101201.53;4957046;29;20392;-85
2022/10/20 08:01:10;;;;;;;18.20;9.40;;;;;;;10.88;99.84;101204.06;4957468;28;20032;-84
2022/10/20 08:03:35;;;;;;;18.00;9.80;;;;;;;10.91;100.00;101203.16;4957428;29;20027;-85
2022/10/20 08:06:01;;;;;;;16.93;8.53;;;;;;;10.95;100.00;101200.50;4956833;29;20536;-84
2022/10/20 08:08:26;;;;;;;18.63;8.67;;;;;;;10.99;100.00;101187.50;4955843;28;20039;-84
2022/10/20 08:10:52;;;;;;;16.43;8.30;;;;;;;11.03;100.00;101189.19;4956790;29;20035;-85
2022/10/20 08:13:17;;;;;;;16.60;8.50;;;;;;;11.07;99.98;101183.06;4957005;29;20034;-85
2022/10/20 08:15:43;;;;;;;15.17;7.73;;;;;;;11.12;100.00;101192.53;4956478;29;20035;-84
2022/10/20 08:18:08;;;;;;;15.30;7.57;;;;;;;11.17;99.93;101195.06;4939785;29;20486;-84
2022/10/20 08:20:34;;;;;;;16.70;8.57;;;;;;;11.23;99.20;101192.41;4956682;29;20149;-85
2022/10/20 08:22:59;;;;;;;18.90;9.37;;;;;;;11.26;99.28;101192.34;4956079;29;20034;-85
2022/10/20 08:25:24;;;;;;;17.80;9.10;;;;;;;11.36;98.63;101190.50;4957946;28;20403;-84
2022/10/20 08:27:50;;;;;;;14.53;7.37;;;;;;;11.40;98.93;101188.72;4956224;29;20114;-84
2022/10/20 08:30:15;;;;;;;14.60;7.77;;;;;;;11.44;99.05;101190.41;4956937;28;20038;-84
2022/10/20 08:32:41;;;;;;;16.03;8.50;;;;;;;11.49;98.74;101179.94;4956848;29;20086;-85
2022/10/20 08:35:07;;;;;;;15.60;7.70;;;;;;;11.52;98.64;101185.94;4956625;29;20032;-84
2022/10/20 08:37:32;;;;;;;12.20;6.50;;;;;;;11.57;99.17;101186.75;4955919;29;20380;-84
2022/10/20 08:39:58;;;;;;;14.40;6.90;;;;;;;11.65;98.22;101180.59;4956136;29;20034;-85
2022/10/20 08:42:25;;;;;;;14.70;7.70;;;;;;;11.69;97.98;101190.06;4963474;28;20030;-84
2022/10/20 08:44:53;;;;;;;;;;;;;;;11.70;98.28;101197.84;4974880;28;20031;-84
2022/10/20 08:47:28;;;;;;;16.27;7.78;;;;;;;11.80;97.80;101182.97;4975780;28;19918;-85
2022/10/20 08:49:53;;;;;;;14.75;7.82;;;;;;;11.82;98.25;101183.78;4974515;28;20046;-85
2022/10/20 08:52:21;;;;;;;13.67;7.20;;;;;;;11.98;98.37;101175.78;4973384;28;20034;-84
2022/10/20 08:54:49;;;;;;;13.88;7.25;;;;;;;12.15;97.28;101181.59;4956151;29;20098;-84
2022/10/20 08:57:23;;;;;;;13.93;7.07;;;;;;;12.28;97.91;101161.41;4955417;29;20050;-84
2022/10/20 08:59:53;;;;;;;12.02;6.35;;;;;;;12.39;97.49;101166.41;4956189;29;20460;-85
2022/10/20 09:02:19;;;;;;;14.63;6.85;;;;;;;12.52;96.94;101157.50;4956228;29;20042;-84
2022/10/20 09:04:50;;;;;;;14.43;7.17;;;;;;;12.65;96.43;101159.88;4955498;29;20380;-85
2022/10/20 09:07:33;;;;;;;13.60;6.90;;;;;;;12.74;96.24;101144.09;4955993;29;20078;-85
2022/10/20 09:10:17;;;;;;;15.27;7.50;;;;;;;12.81;95.77;101153.50;4955808;29;20468;-84
2022/10/20 09:12:45;;;;;;;16.23;7.82;;;;;;;12.84;94.84;101155.19;4955242;29;20027;-85
2022/10/20 09:15:13;;;;;;;13.68;7.20;;;;;;;12.87;95.61;101156.88;4955511;29;20034;-84
2022/10/20 09:17:41;;;;;;;13.38;6.80;;;;;;;12.90;96.02;101155.06;4961807;28;20030;-85
2022/10/20 09:20:17;;;;;;;11.30;5.93;;;;;;;12.93;95.78;101164.56;4974041;28;20124;-85
2022/10/20 09:22:42;;;;;;;9.47;5.40;;;;;;;12.94;95.71;101161.09;4975243;28;20023;-85
2022/10/20 09:25:26;;;;;;;11.87;5.90;;;;;;;12.94;95.32;101154.09;4973491;28;20023;-85
2022/10/20 09:27:54;;;;;;;10.02;5.40;;;;;;;12.94;95.38;101164.53;4974752;28;20042;-85
2022/10/20 09:30:34;;;;;;;11.63;6.10;;;;;;;12.91;95.04;101153.31;4974781;28;20106;-85
2022/10/20 09:33:19;;;;;;;13.63;7.18;;;;;;;12.90;95.00;101155.06;4973840;28;20392;-85
2022/10/20 09:35:46;;;;;;;12.63;6.85;;;;;;;12.88;94.72;101151.66;4974968;28;20022;-89
2022/10/20 09:38:18;;;;;;;14.60;7.93;;;;;;;12.90;94.97;101154.22;4974708;28;20037;-84
2022/10/20 09:41:12;;;;;;;12.18;6.80;;;;;;;12.89;95.71;101158.53;4968580;28;20049;-86
2022/10/20 09:44:13;;;;;;;12.30;6.43;;;;;;;12.92;95.39;101162.84;4973670;28;20043;-85
2022/10/20 09:46:48;;;;;;;11.60;6.32;;;;;;;12.95;95.30;101160.16;4966751;28;20074;-83
2022/10/20 09:49:23;;;;;;;12.07;6.40;;;;;;;12.95;95.20;101163.66;4955268;29;20023;-85
2022/10/20 09:51:51;;;;;;;11.48;5.97;;;;;;;12.97;95.37;101168.81;4955172;29;20507;-82
2022/10/20 09:54:18;;;;;;;11.18;6.18;;;;;;;12.96;94.67;101157.56;4954717;29;20031;-83
2022/10/20 09:56:45;;;;;;;13.98;6.88;;;;;;;12.97;95.00;101156.66;4955366;29;20047;-84
2022/10/20 09:59:26;;;;;;;;;;;;;;;12.96;95.08;101144.53;4955199;29;20086;-83
2022/10/20 10:01:52;;;;;;;11.32;5.93;;;;;;;12.96;95.32;101143.66;4954488;29;19922;-82
2022/10/20 10:04:30;;;;;;;8.55;4.82;;;;;;;12.96;95.64;101143.66;4955182;29;20140;-82
2022/10/20 10:06:56;;;;;;;7.55;4.57;;;;;;;12.95;95.46;101150.63;4954156;29;20031;-84
2022/10/20 10:09:33;;;;;;;8.77;5.03;;;;;;;12.94;95.56;101148.06;4955705;28;20499;-83
2022/10/20 10:12:02;;;;;;;7.10;4.25;;;;;;;12.94;95.67;101140.25;4954698;29;20035;-80
2022/10/20 10:14:29;;;;;;;8.93;4.93;;;;;;;12.93;95.85;101148.94;4954336;29;20027;-84
2022/10/20 10:16:55;;;;;;;7.50;4.30;;;;;;;12.93;96.72;101148.94;4963878;28;20522;-83
2022/10/20 10:19:26;;;;;;;8.30;4.50;;;;;;;12.92;96.46;101158.50;4974201;28;20026;-84
2022/10/20 10:21:55;;;;;;;6.78;4.18;;;;;;;12.93;96.93;101156.75;4972882;28;20129;-83
2022/10/20 10:24:35;;;;;;;7.47;4.13;;;;;;;12.94;96.83;101153.28;4974238;28;20026;-83
2022/10/20 10:27:01;;;;;;;7.60;4.07;;;;;;;12.94;96.90;101138.47;4973621;28;20030;-83
2022/10/20 10:29:33;;;;;;;5.97;3.80;;;;;;;12.93;97.03;101133.31;4973364;28;20089;-83
2022/10/20 10:32:21;;;;;;;6.85;4.05;;;;;;;12.92;96.90;101132.44;4973776;28;20033;-84
2022/10/20 10:35:06;;;;;;;6.85;4.22;;;;;;;12.90;97.47;101122.94;4973934;28;20388;-84
2022/10/20 10:37:32;;;;;;;6.80;4.20;;;;;;;12.88;97.56;101124.72;4973947;28;20034;-85
2022/10/20 10:39:58;;;;;;;7.67;4.00;;;;;;;12.87;97.19;101118.66;4972362;28;20069;-86
2022/10/20 10:42:42;;;;;;;9.00;4.63;;;;;;;12.85;98.71;101117.84;4973170;28;20762;-86
2022/10/20 10:45:18;;;;;;;9.80;4.82;;;;;;;12.83;99.21;101110.03;4973450;28;20023;-87
2022/10/20 10:48:26;;;;;;;8.02;4.80;;;;;;;12.87;98.70;101108.25;4974345;28;20027;-86
2022/10/20 10:51:05;;;;;;;10.90;5.75;;;;;;;12.82;98.21;101123.09;4973469;28;20062;-89
2022/10/20 10:54:02;;;;;;;12.20;6.03;;;;;;;12.81;100.00;101123.97;4974802;28;20435;-91
2022/10/20 10:56:45;;;;;;;12.18;5.97;;;;;;;12.76;99.56;101124.09;4973984;28;20053;-87
2022/10/20 10:59:20;;;;;;;11.02;5.85;;;;;;;12.75;100.00;101121.50;4973657;28;20102;-90
2022/10/20 11:02:25;;;;;;;10.75;5.82;;;;;;;12.73;100.00;101126.72;4973883;28;20117;-86
2022/10/20 11:05:19;;;;;;;11.25;5.90;;;;;;;12.72;99.80;101118.97;4973801;28;20030;-88
2022/10/20 11:08:08;;;;;;;12.93;6.70;;;;;;;12.72;100.00;101108.53;4974080;28;20033;-88
2022/10/20 11:10:40;;;;;;;13.02;6.68;;;;;;;12.71;100.00;101106.81;4971575;28;20117;-88
2022/10/20 11:13:20;;;;;;;14.98;7.47;;;;;;;12.69;100.00;101098.19;4973493;28;20457;-88
2022/10/20 11:15:54;;;;;;;14.90;7.68;;;;;;;12.69;100.00;101087.78;4974101;28;20128;-88
2022/10/20 11:18:43;;;;;;;12.63;6.78;;;;;;;12.72;100.00;101085.13;4973875;28;20031;-89
2022/10/20 11:21:22;;;;;;;13.10;6.75;;;;;;;12.74;100.00;101083.34;4973479;28;20035;-87
2022/10/20 11:24:16;;;;;;;12.20;6.18;;;;;;;12.75;100.00;101087.66;4974786;28;20476;-92
2022/10/20 11:26:44;;;;;;;14.13;7.53;;;;;;;12.75;100.00;101088.50;4974488;28;20054;-93
2022/10/20 11:29:39;;;;;;;14.00;7.63;;;;;;;12.77;100.00;101086.72;4974631;28;20420;-91
2022/10/20 11:32:13;;;;;;;11.00;6.13;;;;;;;12.78;100.00;101087.56;4973025;28;20411;-90
2022/10/20 11:35:04;;;;;;;15.52;7.88;;;;;;;12.77;100.00;101081.53;4974729;28;20031;-92